sensor_id;sensor_type;location;lat;lon;timestamp;P1;durP1;ratioP1;P2;durP2;ratioP2
24157;SDS011;12316;50.904;4.200;2023-05-14T00:01:58;121.70;;;69.03;;
24157;SDS011;12316;50.904;4.200;2023-05-14T00:04:23;126.65;;;70.40;;
24157;SDS011;12316;50.904;4.200;2023-05-14T00:06:49;132.27;;;73.22;;
24157;SDS011;12316;50.904;4.200;2023-05-14T00:09:15;127.70;;;69.20;;
24157;SDS011;12316;50.904;4.200;2023-05-14T00:11:41;124.82;;;67.68;;
24157;SDS011;12316;50.904;4.200;2023-05-14T00:14:07;134.23;;;68.40;;
24157;SDS011;12316;50.904;4.200;2023-05-14T00:16:32;127.45;;;69.93;;
24157;SDS011;12316;50.904;4.200;2023-05-14T00:18:58;127.50;;;67.78;;
24157;SDS011;12316;50.904;4.200;2023-05-14T00:21:23;127.30;;;67.90;;
24157;SDS011;12316;50.904;4.200;2023-05-14T00:23:49;134.82;;;69.20;;
24157;SDS011;12316;50.904;4.200;2023-05-14T00:26:15;133.27;;;69.55;;
24157;SDS011;12316;50.904;4.200;2023-05-14T00:28:40;138.90;;;76.13;;
24157;SDS011;12316;50.904;4.200;2023-05-14T00:31:06;127.05;;;69.47;;
24157;SDS011;12316;50.904;4.200;2023-05-14T00:33:32;134.20;;;69.90;;
24157;SDS011;12316;50.904;4.200;2023-05-14T00:35:57;128.98;;;71.53;;
24157;SDS011;12316;50.904;4.200;2023-05-14T00:38:23;131.65;;;69.00;;
24157;SDS011;12316;50.904;4.200;2023-05-14T00:40:51;133.90;;;70.25;;
24157;SDS011;12316;50.904;4.200;2023-05-14T00:43:18;134.38;;;69.55;;
24157;SDS011;12316;50.904;4.200;2023-05-14T00:45:44;137.40;;;69.10;;
24157;SDS011;12316;50.904;4.200;2023-05-14T00:48:11;141.25;;;70.05;;
24157;SDS011;12316;50.904;4.200;2023-05-14T00:50:37;141.15;;;69.63;;
24157;SDS011;12316;50.904;4.200;2023-05-14T00:53:03;139.32;;;70.85;;
24157;SDS011;12316;50.904;4.200;2023-05-14T00:55:34;142.65;;;69.57;;
24157;SDS011;12316;50.904;4.200;2023-05-14T00:58:09;145.13;;;69.13;;
24157;SDS011;12316;50.904;4.200;2023-05-14T01:00:36;148.65;;;69.05;;
24157;SDS011;12316;50.904;4.200;2023-05-14T01:03:04;138.68;;;72.47;;
24157;SDS011;12316;50.904;4.200;2023-05-14T01:10:52;132.60;;;69.53;;
24157;SDS011;12316;50.904;4.200;2023-05-14T01:13:45;137.27;;;69.78;;
24157;SDS011;12316;50.904;4.200;2023-05-14T01:16:29;130.27;;;68.20;;
24157;SDS011;12316;50.904;4.200;2023-05-14T01:18:58;138.90;;;68.60;;
24157;SDS011;12316;50.904;4.200;2023-05-14T01:21:35;132.45;;;67.57;;
24157;SDS011;12316;50.904;4.200;2023-05-14T01:24:02;130.10;;;68.25;;
24157;SDS011;12316;50.904;4.200;2023-05-14T01:26:29;133.57;;;72.63;;
24157;SDS011;12316;50.904;4.200;2023-05-14T01:28:56;136.23;;;69.25;;
24157;SDS011;12316;50.904;4.200;2023-05-14T01:31:35;141.32;;;71.38;;
24157;SDS011;12316;50.904;4.200;2023-05-14T01:34:04;144.50;;;69.63;;
24157;SDS011;12316;50.904;4.200;2023-05-14T01:36:32;136.05;;;68.95;;
24157;SDS011;12316;50.904;4.200;2023-05-14T01:38:59;146.80;;;70.28;;
24157;SDS011;12316;50.904;4.200;2023-05-14T01:41:25;142.63;;;70.57;;
24157;SDS011;12316;50.904;4.200;2023-05-14T01:43:53;142.25;;;69.30;;
24157;SDS011;12316;50.904;4.200;2023-05-14T01:46:18;140.85;;;70.22;;
24157;SDS011;12316;50.904;4.200;2023-05-14T01:48:44;135.15;;;67.22;;
24157;SDS011;12316;50.904;4.200;2023-05-14T01:51:10;137.93;;;66.25;;
24157;SDS011;12316;50.904;4.200;2023-05-14T01:53:38;133.70;;;68.18;;
24157;SDS011;12316;50.904;4.200;2023-05-14T01:56:04;137.02;;;68.07;;
24157;SDS011;12316;50.904;4.200;2023-05-14T01:58:30;143.88;;;68.32;;
24157;SDS011;12316;50.904;4.200;2023-05-14T02:00:56;138.68;;;68.97;;
24157;SDS011;12316;50.904;4.200;2023-05-14T02:03:21;139.88;;;66.75;;
24157;SDS011;12316;50.904;4.200;2023-05-14T02:05:47;141.35;;;67.10;;
24157;SDS011;12316;50.904;4.200;2023-05-14T02:08:13;131.73;;;66.38;;
24157;SDS011;12316;50.904;4.200;2023-05-14T02:10:38;134.30;;;67.28;;
24157;SDS011;12316;50.904;4.200;2023-05-14T02:13:04;129.82;;;66.25;;
24157;SDS011;12316;50.904;4.200;2023-05-14T02:15:30;132.00;;;64.75;;
24157;SDS011;12316;50.904;4.200;2023-05-14T02:17:56;130.13;;;64.82;;
24157;SDS011;12316;50.904;4.200;2023-05-14T02:20:21;131.35;;;65.20;;
24157;SDS011;12316;50.904;4.200;2023-05-14T02:22:48;135.30;;;63.67;;
24157;SDS011;12316;50.904;4.200;2023-05-14T02:25:14;131.40;;;64.72;;
24157;SDS011;12316;50.904;4.200;2023-05-14T02:27:39;128.18;;;61.92;;
24157;SDS011;12316;50.904;4.200;2023-05-14T02:30:05;133.52;;;64.55;;
24157;SDS011;12316;50.904;4.200;2023-05-14T02:32:31;129.02;;;64.47;;
24157;SDS011;12316;50.904;4.200;2023-05-14T02:34:57;129.52;;;62.63;;
24157;SDS011;12316;50.904;4.200;2023-05-14T02:37:22;132.27;;;65.22;;
24157;SDS011;12316;50.904;4.200;2023-05-14T02:39:48;126.75;;;63.45;;
24157;SDS011;12316;50.904;4.200;2023-05-14T02:42:14;128.07;;;61.83;;
24157;SDS011;12316;50.904;4.200;2023-05-14T02:44:39;125.57;;;62.17;;
24157;SDS011;12316;50.904;4.200;2023-05-14T02:47:05;124.82;;;61.33;;
24157;SDS011;12316;50.904;4.200;2023-05-14T02:49:31;128.48;;;62.67;;
24157;SDS011;12316;50.904;4.200;2023-05-14T02:51:56;125.00;;;63.35;;
24157;SDS011;12316;50.904;4.200;2023-05-14T02:54:24;124.25;;;63.10;;
24157;SDS011;12316;50.904;4.200;2023-05-14T02:56:50;118.07;;;61.70;;
24157;SDS011;12316;50.904;4.200;2023-05-14T02:59:16;123.07;;;64.57;;
24157;SDS011;12316;50.904;4.200;2023-05-14T03:01:42;124.75;;;64.93;;
24157;SDS011;12316;50.904;4.200;2023-05-14T03:04:08;124.47;;;62.90;;
24157;SDS011;12316;50.904;4.200;2023-05-14T03:06:33;132.45;;;63.33;;
24157;SDS011;12316;50.904;4.200;2023-05-14T03:08:59;127.40;;;64.20;;
24157;SDS011;12316;50.904;4.200;2023-05-14T03:11:24;130.85;;;64.68;;
24157;SDS011;12316;50.904;4.200;2023-05-14T03:13:50;132.45;;;63.75;;
24157;SDS011;12316;50.904;4.200;2023-05-14T03:16:16;125.60;;;63.15;;
24157;SDS011;12316;50.904;4.200;2023-05-14T03:18:41;125.60;;;62.97;;
24157;SDS011;12316;50.904;4.200;2023-05-14T03:21:07;117.53;;;62.85;;
24157;SDS011;12316;50.904;4.200;2023-05-14T03:23:33;118.43;;;61.92;;
24157;SDS011;12316;50.904;4.200;2023-05-14T03:25:59;125.60;;;63.50;;
24157;SDS011;12316;50.904;4.200;2023-05-14T03:28:26;121.28;;;63.53;;
24157;SDS011;12316;50.904;4.200;2023-05-14T03:30:51;111.97;;;62.20;;
24157;SDS011;12316;50.904;4.200;2023-05-14T03:33:17;117.32;;;62.40;;
24157;SDS011;12316;50.904;4.200;2023-05-14T03:35:43;118.68;;;62.00;;
24157;SDS011;12316;50.904;4.200;2023-05-14T03:38:08;117.05;;;60.55;;
24157;SDS011;12316;50.904;4.200;2023-05-14T03:40:34;115.07;;;59.67;;
24157;SDS011;12316;50.904;4.200;2023-05-14T03:43:00;114.32;;;60.58;;
24157;SDS011;12316;50.904;4.200;2023-05-14T03:45:26;115.88;;;60.88;;
24157;SDS011;12316;50.904;4.200;2023-05-14T03:47:54;111.57;;;60.28;;
24157;SDS011;12316;50.904;4.200;2023-05-14T03:50:20;119.32;;;62.70;;
24157;SDS011;12316;50.904;4.200;2023-05-14T03:52:45;116.35;;;62.17;;
24157;SDS011;12316;50.904;4.200;2023-05-14T03:55:11;113.63;;;60.50;;
24157;SDS011;12316;50.904;4.200;2023-05-14T03:57:37;117.82;;;63.70;;
24157;SDS011;12316;50.904;4.200;2023-05-14T04:00:03;118.15;;;59.30;;
24157;SDS011;12316;50.904;4.200;2023-05-14T04:02:29;106.93;;;59.20;;
24157;SDS011;12316;50.904;4.200;2023-05-14T04:04:55;109.85;;;59.08;;
24157;SDS011;12316;50.904;4.200;2023-05-14T04:07:20;116.85;;;61.85;;
24157;SDS011;12316;50.904;4.200;2023-05-14T04:09:46;111.93;;;60.15;;
24157;SDS011;12316;50.904;4.200;2023-05-14T04:12:12;119.10;;;60.00;;
24157;SDS011;12316;50.904;4.200;2023-05-14T04:14:37;111.75;;;59.20;;
24157;SDS011;12316;50.904;4.200;2023-05-14T04:17:03;108.95;;;58.85;;
24157;SDS011;12316;50.904;4.200;2023-05-14T04:19:29;115.18;;;58.70;;
24157;SDS011;12316;50.904;4.200;2023-05-14T04:21:54;104.28;;;57.25;;
24157;SDS011;12316;50.904;4.200;2023-05-14T04:24:20;114.15;;;59.40;;
24157;SDS011;12316;50.904;4.200;2023-05-14T04:26:45;106.85;;;58.60;;
24157;SDS011;12316;50.904;4.200;2023-05-14T04:29:11;110.22;;;58.58;;
24157;SDS011;12316;50.904;4.200;2023-05-14T04:31:37;109.60;;;58.20;;
24157;SDS011;12316;50.904;4.200;2023-05-14T04:34:03;109.03;;;59.17;;
24157;SDS011;12316;50.904;4.200;2023-05-14T04:36:29;112.60;;;59.40;;
24157;SDS011;12316;50.904;4.200;2023-05-14T04:38:55;118.45;;;58.85;;
24157;SDS011;12316;50.904;4.200;2023-05-14T04:41:21;119.57;;;59.17;;
24157;SDS011;12316;50.904;4.200;2023-05-14T04:43:48;113.88;;;58.78;;
24157;SDS011;12316;50.904;4.200;2023-05-14T04:46:14;117.38;;;60.47;;
24157;SDS011;12316;50.904;4.200;2023-05-14T04:48:40;113.75;;;57.83;;
24157;SDS011;12316;50.904;4.200;2023-05-14T04:51:06;116.10;;;57.53;;
24157;SDS011;12316;50.904;4.200;2023-05-14T04:53:32;120.97;;;58.30;;
24157;SDS011;12316;50.904;4.200;2023-05-14T04:55:58;111.55;;;59.03;;
24157;SDS011;12316;50.904;4.200;2023-05-14T04:58:23;113.95;;;58.03;;
24157;SDS011;12316;50.904;4.200;2023-05-14T05:00:52;118.40;;;58.65;;
24157;SDS011;12316;50.904;4.200;2023-05-14T05:03:18;106.47;;;57.63;;
24157;SDS011;12316;50.904;4.200;2023-05-14T05:05:44;112.80;;;59.40;;
24157;SDS011;12316;50.904;4.200;2023-05-14T05:08:09;112.78;;;59.90;;
24157;SDS011;12316;50.904;4.200;2023-05-14T05:10:35;109.55;;;58.85;;
24157;SDS011;12316;50.904;4.200;2023-05-14T05:13:01;116.15;;;59.15;;
24157;SDS011;12316;50.904;4.200;2023-05-14T05:15:26;103.15;;;58.60;;
24157;SDS011;12316;50.904;4.200;2023-05-14T05:17:52;103.38;;;58.75;;
24157;SDS011;12316;50.904;4.200;2023-05-14T05:20:18;109.47;;;59.88;;
24157;SDS011;12316;50.904;4.200;2023-05-14T05:22:43;106.43;;;58.72;;
24157;SDS011;12316;50.904;4.200;2023-05-14T05:25:09;108.00;;;58.10;;
24157;SDS011;12316;50.904;4.200;2023-05-14T05:27:36;102.97;;;58.10;;
24157;SDS011;12316;50.904;4.200;2023-05-14T05:30:02;107.28;;;58.03;;
24157;SDS011;12316;50.904;4.200;2023-05-14T05:32:29;121.15;;;60.38;;
24157;SDS011;12316;50.904;4.200;2023-05-14T05:34:55;106.97;;;56.38;;
24157;SDS011;12316;50.904;4.200;2023-05-14T05:37:21;102.97;;;57.13;;
24157;SDS011;12316;50.904;4.200;2023-05-14T05:39:47;107.50;;;58.20;;
24157;SDS011;12316;50.904;4.200;2023-05-14T05:42:12;110.97;;;57.92;;
24157;SDS011;12316;50.904;4.200;2023-05-14T05:44:38;116.65;;;60.05;;
24157;SDS011;12316;50.904;4.200;2023-05-14T05:47:04;113.03;;;59.13;;
24157;SDS011;12316;50.904;4.200;2023-05-14T05:49:30;116.00;;;60.13;;
24157;SDS011;12316;50.904;4.200;2023-05-14T05:51:55;117.32;;;59.17;;
24157;SDS011;12316;50.904;4.200;2023-05-14T05:54:22;120.68;;;59.75;;
24157;SDS011;12316;50.904;4.200;2023-05-14T05:56:48;120.10;;;58.95;;
24157;SDS011;12316;50.904;4.200;2023-05-14T05:59:14;119.82;;;58.15;;
24157;SDS011;12316;50.904;4.200;2023-05-14T06:01:40;118.13;;;59.10;;
24157;SDS011;12316;50.904;4.200;2023-05-14T06:04:07;119.18;;;59.90;;
24157;SDS011;12316;50.904;4.200;2023-05-14T06:06:33;125.43;;;61.42;;
24157;SDS011;12316;50.904;4.200;2023-05-14T06:08:59;119.75;;;59.13;;
24157;SDS011;12316;50.904;4.200;2023-05-14T06:11:26;117.53;;;58.90;;
24157;SDS011;12316;50.904;4.200;2023-05-14T06:13:52;115.88;;;59.42;;
24157;SDS011;12316;50.904;4.200;2023-05-14T06:16:18;115.00;;;60.50;;
24157;SDS011;12316;50.904;4.200;2023-05-14T06:18:43;119.10;;;60.28;;
24157;SDS011;12316;50.904;4.200;2023-05-14T06:21:10;110.68;;;57.35;;
24157;SDS011;12316;50.904;4.200;2023-05-14T06:23:36;114.97;;;59.33;;
24157;SDS011;12316;50.904;4.200;2023-05-14T06:26:01;106.00;;;55.13;;
24157;SDS011;12316;50.904;4.200;2023-05-14T06:28:27;109.20;;;54.70;;
24157;SDS011;12316;50.904;4.200;2023-05-14T06:30:53;99.57;;;56.08;;
24157;SDS011;12316;50.904;4.200;2023-05-14T06:33:19;95.13;;;52.20;;
24157;SDS011;12316;50.904;4.200;2023-05-14T06:35:47;94.75;;;52.90;;
24157;SDS011;12316;50.904;4.200;2023-05-14T06:38:13;91.38;;;51.53;;
24157;SDS011;12316;50.904;4.200;2023-05-14T06:40:38;89.13;;;50.75;;
24157;SDS011;12316;50.904;4.200;2023-05-14T06:43:04;90.07;;;49.08;;
24157;SDS011;12316;50.904;4.200;2023-05-14T06:45:30;91.15;;;48.15;;
24157;SDS011;12316;50.904;4.200;2023-05-14T06:47:56;86.45;;;48.63;;
24157;SDS011;12316;50.904;4.200;2023-05-14T06:50:22;85.75;;;48.85;;
24157;SDS011;12316;50.904;4.200;2023-05-14T06:52:47;86.25;;;49.00;;
24157;SDS011;12316;50.904;4.200;2023-05-14T06:55:13;80.70;;;46.92;;
24157;SDS011;12316;50.904;4.200;2023-05-14T06:57:38;79.75;;;46.10;;
24157;SDS011;12316;50.904;4.200;2023-05-14T07:00:04;82.97;;;49.17;;
24157;SDS011;12316;50.904;4.200;2023-05-14T07:02:32;86.65;;;48.50;;
24157;SDS011;12316;50.904;4.200;2023-05-14T07:04:57;81.68;;;50.42;;
24157;SDS011;12316;50.904;4.200;2023-05-14T07:07:23;80.68;;;49.05;;
24157;SDS011;12316;50.904;4.200;2023-05-14T07:09:49;79.28;;;49.72;;
24157;SDS011;12316;50.904;4.200;2023-05-14T07:12:15;80.15;;;49.65;;
24157;SDS011;12316;50.904;4.200;2023-05-14T07:14:40;80.15;;;50.72;;
24157;SDS011;12316;50.904;4.200;2023-05-14T07:17:06;75.00;;;49.25;;
24157;SDS011;12316;50.904;4.200;2023-05-14T07:19:32;74.53;;;48.88;;
24157;SDS011;12316;50.904;4.200;2023-05-14T07:21:57;81.10;;;49.03;;
24157;SDS011;12316;50.904;4.200;2023-05-14T07:24:23;76.93;;;46.13;;
24157;SDS011;12316;50.904;4.200;2023-05-14T07:26:48;70.88;;;47.03;;
24157;SDS011;12316;50.904;4.200;2023-05-14T07:29:14;66.35;;;45.03;;
24157;SDS011;12316;50.904;4.200;2023-05-14T07:31:40;66.43;;;43.28;;
24157;SDS011;12316;50.904;4.200;2023-05-14T07:34:06;63.60;;;41.72;;
24157;SDS011;12316;50.904;4.200;2023-05-14T07:36:32;59.90;;;41.63;;
24157;SDS011;12316;50.904;4.200;2023-05-14T07:38:58;65.55;;;41.50;;
24157;SDS011;12316;50.904;4.200;2023-05-14T07:41:24;59.60;;;39.72;;
24157;SDS011;12316;50.904;4.200;2023-05-14T07:43:49;62.55;;;40.47;;
24157;SDS011;12316;50.904;4.200;2023-05-14T07:46:15;66.35;;;41.17;;
24157;SDS011;12316;50.904;4.200;2023-05-14T07:48:41;58.05;;;40.88;;
24157;SDS011;12316;50.904;4.200;2023-05-14T07:51:06;65.35;;;41.38;;
24157;SDS011;12316;50.904;4.200;2023-05-14T07:53:32;59.17;;;40.58;;
24157;SDS011;12316;50.904;4.200;2023-05-14T07:55:57;59.90;;;40.65;;
24157;SDS011;12316;50.904;4.200;2023-05-14T07:58:24;57.85;;;39.83;;
24157;SDS011;12316;50.904;4.200;2023-05-14T08:00:51;64.28;;;41.15;;
24157;SDS011;12316;50.904;4.200;2023-05-14T08:03:17;59.40;;;41.70;;
24157;SDS011;12316;50.904;4.200;2023-05-14T08:05:43;57.42;;;40.97;;
24157;SDS011;12316;50.904;4.200;2023-05-14T08:08:09;60.25;;;41.45;;
24157;SDS011;12316;50.904;4.200;2023-05-14T08:10:34;57.75;;;40.40;;
24157;SDS011;12316;50.904;4.200;2023-05-14T08:13:00;61.47;;;41.47;;
24157;SDS011;12316;50.904;4.200;2023-05-14T08:15:26;59.17;;;40.53;;
24157;SDS011;12316;50.904;4.200;2023-05-14T08:17:51;60.55;;;40.70;;
24157;SDS011;12316;50.904;4.200;2023-05-14T08:20:17;53.90;;;38.92;;
24157;SDS011;12316;50.904;4.200;2023-05-14T08:22:43;54.10;;;40.80;;
24157;SDS011;12316;50.904;4.200;2023-05-14T08:25:08;54.05;;;38.92;;
24157;SDS011;12316;50.904;4.200;2023-05-14T08:27:34;53.40;;;39.17;;
24157;SDS011;12316;50.904;4.200;2023-05-14T08:30:00;55.42;;;38.63;;
24157;SDS011;12316;50.904;4.200;2023-05-14T08:32:26;51.55;;;38.85;;
24157;SDS011;12316;50.904;4.200;2023-05-14T08:34:51;52.95;;;37.78;;
24157;SDS011;12316;50.904;4.200;2023-05-14T08:37:17;50.70;;;37.78;;
24157;SDS011;12316;50.904;4.200;2023-05-14T08:39:43;47.05;;;36.58;;
24157;SDS011;12316;50.904;4.200;2023-05-14T08:42:08;52.22;;;35.95;;
24157;SDS011;12316;50.904;4.200;2023-05-14T08:44:57;48.65;;;35.55;;
24157;SDS011;12316;50.904;4.200;2023-05-14T08:47:28;47.00;;;35.45;;
24157;SDS011;12316;50.904;4.200;2023-05-14T08:50:01;50.17;;;35.08;;
24157;SDS011;12316;50.904;4.200;2023-05-14T08:52:29;42.60;;;34.33;;
24157;SDS011;12316;50.904;4.200;2023-05-14T08:54:55;44.85;;;35.53;;
24157;SDS011;12316;50.904;4.200;2023-05-14T08:57:22;48.50;;;35.42;;
24157;SDS011;12316;50.904;4.200;2023-05-14T08:59:50;49.42;;;34.97;;
24157;SDS011;12316;50.904;4.200;2023-05-14T09:02:17;47.90;;;35.78;;
24157;SDS011;12316;50.904;4.200;2023-05-14T09:04:47;42.83;;;32.38;;
24157;SDS011;12316;50.904;4.200;2023-05-14T09:07:18;45.55;;;35.05;;
24157;SDS011;12316;50.904;4.200;2023-05-14T09:09:44;43.20;;;36.00;;
24157;SDS011;12316;50.904;4.200;2023-05-14T09:12:11;46.55;;;35.53;;
24157;SDS011;12316;50.904;4.200;2023-05-14T09:14:37;43.80;;;34.80;;
24157;SDS011;12316;50.904;4.200;2023-05-14T09:17:03;44.38;;;35.28;;
24157;SDS011;12316;50.904;4.200;2023-05-14T09:19:28;46.58;;;34.25;;
24157;SDS011;12316;50.904;4.200;2023-05-14T09:21:55;45.78;;;33.53;;
24157;SDS011;12316;50.904;4.200;2023-05-14T09:24:23;46.05;;;36.38;;
24157;SDS011;12316;50.904;4.200;2023-05-14T09:26:51;44.15;;;34.03;;
24157;SDS011;12316;50.904;4.200;2023-05-14T09:29:18;42.92;;;33.47;;
24157;SDS011;12316;50.904;4.200;2023-05-14T09:31:44;39.92;;;33.20;;
24157;SDS011;12316;50.904;4.200;2023-05-14T09:34:10;44.33;;;34.40;;
24157;SDS011;12316;50.904;4.200;2023-05-14T09:36:35;44.10;;;33.53;;
24157;SDS011;12316;50.904;4.200;2023-05-14T09:39:04;43.80;;;33.20;;
24157;SDS011;12316;50.904;4.200;2023-05-14T09:41:30;42.20;;;33.20;;
24157;SDS011;12316;50.904;4.200;2023-05-14T09:43:56;42.72;;;34.55;;
24157;SDS011;12316;50.904;4.200;2023-05-14T09:46:22;43.67;;;33.75;;
24157;SDS011;12316;50.904;4.200;2023-05-14T09:48:54;42.08;;;32.67;;
24157;SDS011;12316;50.904;4.200;2023-05-14T09:51:20;39.90;;;32.10;;
24157;SDS011;12316;50.904;4.200;2023-05-14T09:53:46;39.45;;;31.60;;
24157;SDS011;12316;50.904;4.200;2023-05-14T09:56:12;38.92;;;32.00;;
24157;SDS011;12316;50.904;4.200;2023-05-14T09:58:38;41.10;;;31.17;;
24157;SDS011;12316;50.904;4.200;2023-05-14T10:01:04;40.97;;;32.28;;
24157;SDS011;12316;50.904;4.200;2023-05-14T10:03:30;37.63;;;30.92;;
24157;SDS011;12316;50.904;4.200;2023-05-14T10:05:57;36.40;;;30.42;;
24157;SDS011;12316;50.904;4.200;2023-05-14T10:08:34;40.03;;;30.00;;
24157;SDS011;12316;50.904;4.200;2023-05-14T10:11:03;39.42;;;30.42;;
24157;SDS011;12316;50.904;4.200;2023-05-14T10:13:36;36.38;;;30.42;;
24157;SDS011;12316;50.904;4.200;2023-05-14T10:16:07;37.95;;;31.05;;
24157;SDS011;12316;50.904;4.200;2023-05-14T10:18:45;46.05;;;31.48;;
24157;SDS011;12316;50.904;4.200;2023-05-14T10:21:15;42.22;;;31.48;;
24157;SDS011;12316;50.904;4.200;2023-05-14T10:23:44;40.40;;;30.48;;
24157;SDS011;12316;50.904;4.200;2023-05-14T10:26:10;44.97;;;30.13;;
24157;SDS011;12316;50.904;4.200;2023-05-14T10:28:37;37.67;;;28.40;;
24157;SDS011;12316;50.904;4.200;2023-05-14T10:31:03;35.30;;;28.55;;
24157;SDS011;12316;50.904;4.200;2023-05-14T10:33:28;36.35;;;28.48;;
24157;SDS011;12316;50.904;4.200;2023-05-14T10:35:55;39.70;;;27.20;;
24157;SDS011;12316;50.904;4.200;2023-05-14T10:41:01;35.25;;;27.42;;
24157;SDS011;12316;50.904;4.200;2023-05-14T10:43:29;36.55;;;27.77;;
24157;SDS011;12316;50.904;4.200;2023-05-14T10:45:59;35.05;;;27.30;;
24157;SDS011;12316;50.904;4.200;2023-05-14T10:48:25;31.17;;;26.55;;
24157;SDS011;12316;50.904;4.200;2023-05-14T10:50:51;32.97;;;25.65;;
24157;SDS011;12316;50.904;4.200;2023-05-14T10:53:18;29.60;;;26.50;;
24157;SDS011;12316;50.904;4.200;2023-05-14T10:55:44;32.47;;;25.40;;
24157;SDS011;12316;50.904;4.200;2023-05-14T10:58:10;31.48;;;25.48;;
24157;SDS011;12316;50.904;4.200;2023-05-14T11:00:36;28.38;;;24.52;;
24157;SDS011;12316;50.904;4.200;2023-05-14T11:03:03;37.47;;;25.02;;
24157;SDS011;12316;50.904;4.200;2023-05-14T11:05:30;34.45;;;25.52;;
24157;SDS011;12316;50.904;4.200;2023-05-14T11:07:56;28.65;;;24.88;;
24157;SDS011;12316;50.904;4.200;2023-05-14T11:10:23;30.58;;;25.45;;
24157;SDS011;12316;50.904;4.200;2023-05-14T11:12:54;29.30;;;24.10;;
24157;SDS011;12316;50.904;4.200;2023-05-14T11:15:22;33.63;;;24.42;;
24157;SDS011;12316;50.904;4.200;2023-05-14T11:17:49;35.55;;;26.25;;
24157;SDS011;12316;50.904;4.200;2023-05-14T11:20:15;33.15;;;26.63;;
24157;SDS011;12316;50.904;4.200;2023-05-14T11:22:42;31.88;;;24.52;;
24157;SDS011;12316;50.904;4.200;2023-05-14T11:25:09;29.58;;;23.88;;
24157;SDS011;12316;50.904;4.200;2023-05-14T11:27:38;27.38;;;23.13;;
24157;SDS011;12316;50.904;4.200;2023-05-14T11:30:04;29.88;;;25.35;;
24157;SDS011;12316;50.904;4.200;2023-05-14T11:32:30;28.95;;;23.70;;
24157;SDS011;12316;50.904;4.200;2023-05-14T11:34:56;28.35;;;23.95;;
24157;SDS011;12316;50.904;4.200;2023-05-14T11:37:22;29.38;;;23.08;;
24157;SDS011;12316;50.904;4.200;2023-05-14T11:39:49;31.30;;;23.70;;
24157;SDS011;12316;50.904;4.200;2023-05-14T11:42:16;28.13;;;23.30;;
24157;SDS011;12316;50.904;4.200;2023-05-14T11:44:49;25.45;;;22.10;;
24157;SDS011;12316;50.904;4.200;2023-05-14T11:47:17;26.77;;;22.90;;
24157;SDS011;12316;50.904;4.200;2023-05-14T11:49:44;28.40;;;24.00;;
24157;SDS011;12316;50.904;4.200;2023-05-14T11:52:10;26.35;;;23.55;;
24157;SDS011;12316;50.904;4.200;2023-05-14T11:54:40;28.38;;;22.85;;
24157;SDS011;12316;50.904;4.200;2023-05-14T11:57:14;26.40;;;21.75;;
24157;SDS011;12316;50.904;4.200;2023-05-14T11:59:45;27.50;;;23.25;;
24157;SDS011;12316;50.904;4.200;2023-05-14T12:02:12;27.85;;;22.67;;
24157;SDS011;12316;50.904;4.200;2023-05-14T12:04:42;26.20;;;23.50;;
24157;SDS011;12316;50.904;4.200;2023-05-14T12:07:13;31.42;;;23.63;;
24157;SDS011;12316;50.904;4.200;2023-05-14T12:09:41;30.05;;;25.52;;
24157;SDS011;12316;50.904;4.200;2023-05-14T12:12:13;27.90;;;24.30;;
24157;SDS011;12316;50.904;4.200;2023-05-14T12:14:40;27.58;;;24.20;;
24157;SDS011;12316;50.904;4.200;2023-05-14T12:17:16;28.35;;;25.08;;
24157;SDS011;12316;50.904;4.200;2023-05-14T12:19:43;26.38;;;23.42;;
24157;SDS011;12316;50.904;4.200;2023-05-14T12:22:10;31.65;;;23.73;;
24157;SDS011;12316;50.904;4.200;2023-05-14T12:24:37;28.02;;;23.13;;
24157;SDS011;12316;50.904;4.200;2023-05-14T12:27:03;32.45;;;22.10;;
24157;SDS011;12316;50.904;4.200;2023-05-14T12:29:29;26.35;;;21.98;;
24157;SDS011;12316;50.904;4.200;2023-05-14T12:31:59;31.40;;;23.27;;
24157;SDS011;12316;50.904;4.200;2023-05-14T12:34:25;29.60;;;23.80;;
24157;SDS011;12316;50.904;4.200;2023-05-14T12:36:51;28.40;;;22.75;;
24157;SDS011;12316;50.904;4.200;2023-05-14T12:39:17;26.05;;;22.23;;
24157;SDS011;12316;50.904;4.200;2023-05-14T12:41:42;26.08;;;22.20;;
24157;SDS011;12316;50.904;4.200;2023-05-14T12:44:09;26.23;;;22.95;;
24157;SDS011;12316;50.904;4.200;2023-05-14T12:46:35;29.25;;;23.00;;
24157;SDS011;12316;50.904;4.200;2023-05-14T12:49:00;25.05;;;21.92;;
24157;SDS011;12316;50.904;4.200;2023-05-14T12:51:26;25.20;;;21.90;;
24157;SDS011;12316;50.904;4.200;2023-05-14T12:53:52;28.58;;;21.25;;
24157;SDS011;12316;50.904;4.200;2023-05-14T12:56:18;25.42;;;21.52;;
24157;SDS011;12316;50.904;4.200;2023-05-14T12:58:46;25.73;;;21.25;;
24157;SDS011;12316;50.904;4.200;2023-05-14T13:01:11;23.17;;;20.27;;
24157;SDS011;12316;50.904;4.200;2023-05-14T13:03:37;23.02;;;20.50;;
24157;SDS011;12316;50.904;4.200;2023-05-14T13:06:03;24.33;;;21.33;;
24157;SDS011;12316;50.904;4.200;2023-05-14T13:08:28;23.48;;;20.70;;
24157;SDS011;12316;50.904;4.200;2023-05-14T13:10:54;25.58;;;21.02;;
24157;SDS011;12316;50.904;4.200;2023-05-14T13:13:21;27.05;;;21.88;;
24157;SDS011;12316;50.904;4.200;2023-05-14T13:15:47;22.90;;;20.40;;
24157;SDS011;12316;50.904;4.200;2023-05-14T13:18:13;22.80;;;19.33;;
24157;SDS011;12316;50.904;4.200;2023-05-14T13:20:39;24.73;;;20.63;;
24157;SDS011;12316;50.904;4.200;2023-05-14T13:23:05;24.35;;;19.80;;
24157;SDS011;12316;50.904;4.200;2023-05-14T13:25:31;21.40;;;19.15;;
24157;SDS011;12316;50.904;4.200;2023-05-14T13:27:57;22.67;;;18.77;;
24157;SDS011;12316;50.904;4.200;2023-05-14T13:30:23;21.88;;;17.58;;
24157;SDS011;12316;50.904;4.200;2023-05-14T13:32:49;23.88;;;18.35;;
24157;SDS011;12316;50.904;4.200;2023-05-14T13:35:15;23.60;;;17.85;;
24157;SDS011;12316;50.904;4.200;2023-05-14T13:37:43;22.75;;;17.30;;
24157;SDS011;12316;50.904;4.200;2023-05-14T13:40:09;20.67;;;15.85;;
24157;SDS011;12316;50.904;4.200;2023-05-14T13:42:35;22.45;;;16.00;;
24157;SDS011;12316;50.904;4.200;2023-05-14T13:45:03;17.35;;;14.98;;
24157;SDS011;12316;50.904;4.200;2023-05-14T13:47:30;17.63;;;14.27;;
24157;SDS011;12316;50.904;4.200;2023-05-14T13:49:56;19.95;;;14.90;;
24157;SDS011;12316;50.904;4.200;2023-05-14T13:52:22;19.17;;;15.02;;
24157;SDS011;12316;50.904;4.200;2023-05-14T13:54:48;18.27;;;15.52;;
24157;SDS011;12316;50.904;4.200;2023-05-14T13:57:13;22.45;;;15.07;;
24157;SDS011;12316;50.904;4.200;2023-05-14T13:59:39;19.58;;;13.45;;
24157;SDS011;12316;50.904;4.200;2023-05-14T14:02:06;18.17;;;14.18;;
24157;SDS011;12316;50.904;4.200;2023-05-14T14:04:33;20.23;;;13.93;;
24157;SDS011;12316;50.904;4.200;2023-05-14T14:06:58;22.67;;;13.80;;
24157;SDS011;12316;50.904;4.200;2023-05-14T14:09:24;17.92;;;12.95;;
24157;SDS011;12316;50.904;4.200;2023-05-14T14:11:50;20.02;;;14.43;;
24157;SDS011;12316;50.904;4.200;2023-05-14T14:14:16;20.08;;;15.00;;
24157;SDS011;12316;50.904;4.200;2023-05-14T14:16:42;22.63;;;15.40;;
24157;SDS011;12316;50.904;4.200;2023-05-14T14:19:08;21.02;;;14.27;;
24157;SDS011;12316;50.904;4.200;2023-05-14T14:21:33;17.63;;;14.73;;